sensor_id;sensor_type;location;lat;lon;timestamp;P1;durP1;ratioP1;P2;durP2;ratioP2
53666;SDS011;39568;51.026;5.468;2022-10-19T00:01:53;27.92;;;9.68;;
53666;SDS011;39568;51.026;5.468;2022-10-19T00:04:19;34.22;;;10.85;;
53666;SDS011;39568;51.026;5.468;2022-10-19T00:06:46;22.65;;;10.38;;
53666;SDS011;39568;51.026;5.468;2022-10-19T00:09:13;36.60;;;9.85;;
53666;SDS011;39568;51.026;5.468;2022-10-19T00:11:42;35.83;;;10.38;;
53666;SDS011;39568;51.026;5.468;2022-10-19T00:14:11;27.13;;;10.88;;
53666;SDS011;39568;51.026;5.468;2022-10-19T00:16:42;28.52;;;8.15;;
53666;SDS011;39568;51.026;5.468;2022-10-19T00:19:14;32.47;;;8.73;;
53666;SDS011;39568;51.026;5.468;2022-10-19T00:21:43;25.80;;;8.77;;
53666;SDS011;39568;51.026;5.468;2022-10-19T00:24:10;17.67;;;7.97;;
53666;SDS011;39568;51.026;5.468;2022-10-19T00:26:37;12.65;;;7.93;;
53666;SDS011;39568;51.026;5.468;2022-10-19T00:29:04;43.22;;;8.80;;
53666;SDS011;39568;51.026;5.468;2022-10-19T00:31:33;22.02;;;8.35;;
53666;SDS011;39568;51.026;5.468;2022-10-19T00:33:59;18.35;;;8.52;;
53666;SDS011;39568;51.026;5.468;2022-10-19T00:36:27;26.13;;;9.13;;
53666;SDS011;39568;51.026;5.468;2022-10-19T00:38:56;22.63;;;9.25;;
53666;SDS011;39568;51.026;5.468;2022-10-19T00:41:24;33.40;;;9.63;;
53666;SDS011;39568;51.026;5.468;2022-10-19T00:43:53;30.85;;;8.75;;
53666;SDS011;39568;51.026;5.468;2022-10-19T00:46:33;32.83;;;8.52;;
53666;SDS011;39568;51.026;5.468;2022-10-19T00:49:02;32.08;;;11.23;;
53666;SDS011;39568;51.026;5.468;2022-10-19T00:51:32;28.30;;;9.32;;
53666;SDS011;39568;51.026;5.468;2022-10-19T00:54:00;28.65;;;9.73;;
53666;SDS011;39568;51.026;5.468;2022-10-19T00:56:30;31.05;;;10.18;;
53666;SDS011;39568;51.026;5.468;2022-10-19T00:58:57;27.75;;;9.07;;
53666;SDS011;39568;51.026;5.468;2022-10-19T01:01:24;43.25;;;12.35;;
53666;SDS011;39568;51.026;5.468;2022-10-19T01:03:54;24.02;;;10.10;;
53666;SDS011;39568;51.026;5.468;2022-10-19T01:06:21;37.60;;;13.32;;
53666;SDS011;39568;51.026;5.468;2022-10-19T01:08:49;45.65;;;12.32;;
53666;SDS011;39568;51.026;5.468;2022-10-19T01:11:19;29.95;;;12.52;;
53666;SDS011;39568;51.026;5.468;2022-10-19T01:13:58;47.43;;;12.93;;
53666;SDS011;39568;51.026;5.468;2022-10-19T01:16:41;25.60;;;12.48;;
53666;SDS011;39568;51.026;5.468;2022-10-19T01:19:22;29.58;;;13.30;;
53666;SDS011;39568;51.026;5.468;2022-10-19T01:22:02;31.50;;;11.60;;
53666;SDS011;39568;51.026;5.468;2022-10-19T01:27:41;38.95;;;12.25;;
53666;SDS011;39568;51.026;5.468;2022-10-19T01:30:20;35.88;;;12.30;;
53666;SDS011;39568;51.026;5.468;2022-10-19T01:33:05;44.42;;;13.32;;
53666;SDS011;39568;51.026;5.468;2022-10-19T01:35:45;35.90;;;12.57;;
53666;SDS011;39568;51.026;5.468;2022-10-19T01:38:25;37.13;;;13.10;;
53666;SDS011;39568;51.026;5.468;2022-10-19T01:41:00;35.97;;;15.38;;
53666;SDS011;39568;51.026;5.468;2022-10-19T01:43:37;39.25;;;13.77;;
53666;SDS011;39568;51.026;5.468;2022-10-19T01:46:10;34.45;;;14.10;;
53666;SDS011;39568;51.026;5.468;2022-10-19T01:48:39;36.28;;;13.90;;
53666;SDS011;39568;51.026;5.468;2022-10-19T01:51:11;37.95;;;14.35;;
53666;SDS011;39568;51.026;5.468;2022-10-19T01:53:41;32.73;;;13.33;;
53666;SDS011;39568;51.026;5.468;2022-10-19T01:56:11;37.63;;;14.13;;
53666;SDS011;39568;51.026;5.468;2022-10-19T01:58:39;35.65;;;14.63;;
53666;SDS011;39568;51.026;5.468;2022-10-19T02:01:10;53.85;;;16.63;;
53666;SDS011;39568;51.026;5.468;2022-10-19T02:03:40;48.90;;;15.73;;
53666;SDS011;39568;51.026;5.468;2022-10-19T02:06:07;39.00;;;15.95;;
53666;SDS011;39568;51.026;5.468;2022-10-19T02:08:37;45.85;;;17.20;;
53666;SDS011;39568;51.026;5.468;2022-10-19T02:11:08;51.00;;;18.83;;
53666;SDS011;39568;51.026;5.468;2022-10-19T02:13:34;52.25;;;20.60;;
53666;SDS011;39568;51.026;5.468;2022-10-19T02:16:05;50.55;;;19.70;;
53666;SDS011;39568;51.026;5.468;2022-10-19T02:18:38;50.10;;;20.77;;
53666;SDS011;39568;51.026;5.468;2022-10-19T02:21:09;42.67;;;19.20;;
53666;SDS011;39568;51.026;5.468;2022-10-19T02:23:36;58.92;;;20.58;;
53666;SDS011;39568;51.026;5.468;2022-10-19T02:26:04;53.28;;;19.63;;
53666;SDS011;39568;51.026;5.468;2022-10-19T02:28:31;51.67;;;18.77;;
53666;SDS011;39568;51.026;5.468;2022-10-19T02:30:59;57.83;;;21.15;;
53666;SDS011;39568;51.026;5.468;2022-10-19T02:33:30;40.25;;;18.60;;
53666;SDS011;39568;51.026;5.468;2022-10-19T02:35:59;56.70;;;21.77;;
53666;SDS011;39568;51.026;5.468;2022-10-19T02:38:26;42.10;;;19.85;;
53666;SDS011;39568;51.026;5.468;2022-10-19T02:41:00;54.65;;;20.85;;
53666;SDS011;39568;51.026;5.468;2022-10-19T02:43:32;47.83;;;19.05;;
53666;SDS011;39568;51.026;5.468;2022-10-19T02:46:03;50.50;;;18.55;;
53666;SDS011;39568;51.026;5.468;2022-10-19T02:51:03;54.40;;;18.80;;
53666;SDS011;39568;51.026;5.468;2022-10-19T02:53:29;48.75;;;18.88;;
53666;SDS011;39568;51.026;5.468;2022-10-19T02:55:56;39.67;;;19.88;;
53666;SDS011;39568;51.026;5.468;2022-10-19T02:58:23;48.20;;;18.65;;
53666;SDS011;39568;51.026;5.468;2022-10-19T03:00:49;51.10;;;20.35;;
53666;SDS011;39568;51.026;5.468;2022-10-19T03:03:30;46.90;;;19.67;;
53666;SDS011;39568;51.026;5.468;2022-10-19T03:05:57;55.47;;;19.25;;
53666;SDS011;39568;51.026;5.468;2022-10-19T03:08:25;41.42;;;18.90;;
53666;SDS011;39568;51.026;5.468;2022-10-19T03:10:53;49.92;;;18.50;;
53666;SDS011;39568;51.026;5.468;2022-10-19T03:13:25;45.58;;;18.27;;
53666;SDS011;39568;51.026;5.468;2022-10-19T03:15:52;56.53;;;18.10;;
53666;SDS011;39568;51.026;5.468;2022-10-19T03:18:19;46.45;;;17.42;;
53666;SDS011;39568;51.026;5.468;2022-10-19T03:20:45;49.65;;;20.02;;
53666;SDS011;39568;51.026;5.468;2022-10-19T03:23:16;38.08;;;18.25;;
53666;SDS011;39568;51.026;5.468;2022-10-19T03:25:44;59.65;;;20.65;;
53666;SDS011;39568;51.026;5.468;2022-10-19T03:28:21;57.67;;;22.25;;
53666;SDS011;39568;51.026;5.468;2022-10-19T03:30:48;60.95;;;21.33;;
53666;SDS011;39568;51.026;5.468;2022-10-19T03:33:14;55.38;;;22.98;;
53666;SDS011;39568;51.026;5.468;2022-10-19T03:35:41;47.67;;;20.83;;
53666;SDS011;39568;51.026;5.468;2022-10-19T03:38:07;61.05;;;22.63;;
53666;SDS011;39568;51.026;5.468;2022-10-19T03:40:35;54.95;;;22.85;;
53666;SDS011;39568;51.026;5.468;2022-10-19T03:43:05;50.22;;;22.55;;
53666;SDS011;39568;51.026;5.468;2022-10-19T03:45:32;58.22;;;22.83;;
53666;SDS011;39568;51.026;5.468;2022-10-19T03:48:09;65.20;;;24.48;;
53666;SDS011;39568;51.026;5.468;2022-10-19T03:50:36;66.25;;;23.55;;
53666;SDS011;39568;51.026;5.468;2022-10-19T03:53:02;72.60;;;23.55;;
53666;SDS011;39568;51.026;5.468;2022-10-19T03:55:29;51.15;;;22.83;;
53666;SDS011;39568;51.026;5.468;2022-10-19T03:57:56;74.07;;;24.63;;
53666;SDS011;39568;51.026;5.468;2022-10-19T04:00:24;56.08;;;24.77;;
53666;SDS011;39568;51.026;5.468;2022-10-19T04:02:51;58.40;;;25.67;;
53666;SDS011;39568;51.026;5.468;2022-10-19T04:05:17;64.70;;;25.15;;
53666;SDS011;39568;51.026;5.468;2022-10-19T04:07:44;59.13;;;23.90;;
53666;SDS011;39568;51.026;5.468;2022-10-19T04:10:11;76.55;;;27.73;;
53666;SDS011;39568;51.026;5.468;2022-10-19T04:12:37;64.40;;;25.73;;
53666;SDS011;39568;51.026;5.468;2022-10-19T04:15:04;62.33;;;26.40;;
53666;SDS011;39568;51.026;5.468;2022-10-19T04:17:32;63.25;;;23.92;;
53666;SDS011;39568;51.026;5.468;2022-10-19T04:19:59;62.80;;;25.42;;
53666;SDS011;39568;51.026;5.468;2022-10-19T04:22:26;63.08;;;25.25;;
53666;SDS011;39568;51.026;5.468;2022-10-19T04:24:52;65.60;;;24.08;;
53666;SDS011;39568;51.026;5.468;2022-10-19T04:27:19;83.85;;;24.52;;
53666;SDS011;39568;51.026;5.468;2022-10-19T04:29:45;64.07;;;23.23;;
53666;SDS011;39568;51.026;5.468;2022-10-19T04:32:16;85.63;;;26.23;;
53666;SDS011;39568;51.026;5.468;2022-10-19T04:34:44;78.50;;;25.55;;
53666;SDS011;39568;51.026;5.468;2022-10-19T04:37:11;69.97;;;25.92;;
53666;SDS011;39568;51.026;5.468;2022-10-19T04:39:37;67.45;;;26.50;;
53666;SDS011;39568;51.026;5.468;2022-10-19T04:42:07;68.03;;;28.48;;
53666;SDS011;39568;51.026;5.468;2022-10-19T04:44:33;62.55;;;26.60;;
53666;SDS011;39568;51.026;5.468;2022-10-19T04:47:00;91.50;;;28.92;;
53666;SDS011;39568;51.026;5.468;2022-10-19T04:49:27;80.72;;;29.10;;
53666;SDS011;39568;51.026;5.468;2022-10-19T04:51:59;74.70;;;32.00;;
53666;SDS011;39568;51.026;5.468;2022-10-19T04:54:26;75.50;;;29.10;;
53666;SDS011;39568;51.026;5.468;2022-10-19T04:56:53;94.90;;;30.85;;
53666;SDS011;39568;51.026;5.468;2022-10-19T04:59:19;70.55;;;28.45;;
53666;SDS011;39568;51.026;5.468;2022-10-19T05:01:46;95.00;;;29.77;;
53666;SDS011;39568;51.026;5.468;2022-10-19T05:04:12;83.65;;;32.40;;
53666;SDS011;39568;51.026;5.468;2022-10-19T05:06:39;91.55;;;31.90;;
53666;SDS011;39568;51.026;5.468;2022-10-19T05:09:14;101.03;;;33.63;;
53666;SDS011;39568;51.026;5.468;2022-10-19T05:11:41;88.28;;;32.53;;
53666;SDS011;39568;51.026;5.468;2022-10-19T05:14:07;114.30;;;38.67;;
53666;SDS011;39568;51.026;5.468;2022-10-19T05:16:34;118.60;;;37.83;;
53666;SDS011;39568;51.026;5.468;2022-10-19T05:19:01;96.78;;;36.90;;
53666;SDS011;39568;51.026;5.468;2022-10-19T05:21:27;107.18;;;34.25;;
53666;SDS011;39568;51.026;5.468;2022-10-19T05:23:54;109.75;;;36.45;;
53666;SDS011;39568;51.026;5.468;2022-10-19T05:26:26;104.95;;;36.05;;
53666;SDS011;39568;51.026;5.468;2022-10-19T05:28:55;112.18;;;39.08;;
53666;SDS011;39568;51.026;5.468;2022-10-19T05:31:26;140.13;;;42.90;;
53666;SDS011;39568;51.026;5.468;2022-10-19T05:33:59;131.15;;;41.17;;
53666;SDS011;39568;51.026;5.468;2022-10-19T05:36:28;121.32;;;40.47;;
53666;SDS011;39568;51.026;5.468;2022-10-19T05:38:59;125.82;;;44.80;;
53666;SDS011;39568;51.026;5.468;2022-10-19T05:41:36;121.28;;;41.22;;
53666;SDS011;39568;51.026;5.468;2022-10-19T05:44:12;106.65;;;37.92;;
53666;SDS011;39568;51.026;5.468;2022-10-19T05:46:46;107.93;;;39.33;;
53666;SDS011;39568;51.026;5.468;2022-10-19T05:49:14;112.18;;;38.33;;
53666;SDS011;39568;51.026;5.468;2022-10-19T05:51:42;120.15;;;38.75;;
53666;SDS011;39568;51.026;5.468;2022-10-19T05:54:24;115.15;;;38.03;;
53666;SDS011;39568;51.026;5.468;2022-10-19T05:56:57;123.88;;;37.30;;
53666;SDS011;39568;51.026;5.468;2022-10-19T05:59:23;128.30;;;42.95;;
53666;SDS011;39568;51.026;5.468;2022-10-19T06:01:50;137.20;;;43.88;;
53666;SDS011;39568;51.026;5.468;2022-10-19T06:04:17;108.03;;;42.72;;
53666;SDS011;39568;51.026;5.468;2022-10-19T06:06:43;136.23;;;42.63;;
53666;SDS011;39568;51.026;5.468;2022-10-19T06:09:10;137.32;;;42.30;;
53666;SDS011;39568;51.026;5.468;2022-10-19T06:11:38;163.00;;;45.50;;
53666;SDS011;39568;51.026;5.468;2022-10-19T06:14:10;139.95;;;47.83;;
53666;SDS011;39568;51.026;5.468;2022-10-19T06:16:40;148.32;;;45.90;;
53666;SDS011;39568;51.026;5.468;2022-10-19T06:19:07;138.57;;;47.30;;
53666;SDS011;39568;51.026;5.468;2022-10-19T06:21:33;148.93;;;46.00;;
53666;SDS011;39568;51.026;5.468;2022-10-19T06:24:01;141.52;;;44.60;;
53666;SDS011;39568;51.026;5.468;2022-10-19T06:26:29;123.18;;;40.90;;
53666;SDS011;39568;51.026;5.468;2022-10-19T06:28:57;141.85;;;41.40;;
53666;SDS011;39568;51.026;5.468;2022-10-19T06:31:26;110.22;;;40.33;;
53666;SDS011;39568;51.026;5.468;2022-10-19T06:33:53;130.27;;;42.13;;
53666;SDS011;39568;51.026;5.468;2022-10-19T06:36:21;113.80;;;36.55;;
53666;SDS011;39568;51.026;5.468;2022-10-19T06:38:51;110.70;;;34.73;;
53666;SDS011;39568;51.026;5.468;2022-10-19T06:41:18;110.72;;;35.13;;
53666;SDS011;39568;51.026;5.468;2022-10-19T06:43:48;96.10;;;36.30;;
53666;SDS011;39568;51.026;5.468;2022-10-19T06:46:22;130.05;;;35.55;;
53666;SDS011;39568;51.026;5.468;2022-10-19T06:48:54;94.60;;;31.30;;
53666;SDS011;39568;51.026;5.468;2022-10-19T06:51:23;90.00;;;33.15;;
53666;SDS011;39568;51.026;5.468;2022-10-19T06:53:50;86.85;;;30.10;;
53666;SDS011;39568;51.026;5.468;2022-10-19T06:56:17;102.68;;;32.95;;
53666;SDS011;39568;51.026;5.468;2022-10-19T06:58:44;96.80;;;32.63;;
53666;SDS011;39568;51.026;5.468;2022-10-19T07:01:11;98.82;;;31.60;;
53666;SDS011;39568;51.026;5.468;2022-10-19T07:03:38;86.53;;;31.00;;
53666;SDS011;39568;51.026;5.468;2022-10-19T07:06:09;87.28;;;26.95;;
53666;SDS011;39568;51.026;5.468;2022-10-19T07:08:39;71.05;;;27.42;;
53666;SDS011;39568;51.026;5.468;2022-10-19T07:11:09;80.57;;;27.55;;
53666;SDS011;39568;51.026;5.468;2022-10-19T07:13:37;73.05;;;26.73;;
53666;SDS011;39568;51.026;5.468;2022-10-19T07:16:04;79.07;;;26.02;;
53666;SDS011;39568;51.026;5.468;2022-10-19T07:18:32;70.20;;;25.80;;
53666;SDS011;39568;51.026;5.468;2022-10-19T07:21:03;67.57;;;25.77;;
53666;SDS011;39568;51.026;5.468;2022-10-19T07:23:33;83.38;;;24.50;;
53666;SDS011;39568;51.026;5.468;2022-10-19T07:26:02;77.07;;;24.40;;
53666;SDS011;39568;51.026;5.468;2022-10-19T07:28:30;63.20;;;23.60;;
53666;SDS011;39568;51.026;5.468;2022-10-19T07:31:02;71.63;;;24.92;;
53666;SDS011;39568;51.026;5.468;2022-10-19T07:35:57;63.10;;;23.20;;
53666;SDS011;39568;51.026;5.468;2022-10-19T07:38:25;45.38;;;22.20;;
53666;SDS011;39568;51.026;5.468;2022-10-19T07:40:59;46.00;;;19.20;;
53666;SDS011;39568;51.026;5.468;2022-10-19T07:43:27;45.67;;;21.58;;
53666;SDS011;39568;51.026;5.468;2022-10-19T07:45:56;42.88;;;21.50;;
53666;SDS011;39568;51.026;5.468;2022-10-19T07:48:23;42.58;;;19.90;;
53666;SDS011;39568;51.026;5.468;2022-10-19T07:50:50;52.55;;;21.73;;
53666;SDS011;39568;51.026;5.468;2022-10-19T07:53:17;46.15;;;20.23;;
53666;SDS011;39568;51.026;5.468;2022-10-19T07:55:43;41.42;;;20.10;;
53666;SDS011;39568;51.026;5.468;2022-10-19T07:58:11;40.05;;;17.17;;
53666;SDS011;39568;51.026;5.468;2022-10-19T08:00:38;33.33;;;17.20;;
53666;SDS011;39568;51.026;5.468;2022-10-19T08:03:05;32.30;;;16.65;;
53666;SDS011;39568;51.026;5.468;2022-10-19T08:05:32;45.08;;;17.08;;
53666;SDS011;39568;51.026;5.468;2022-10-19T08:07:59;36.72;;;12.68;;
53666;SDS011;39568;51.026;5.468;2022-10-19T08:10:27;32.42;;;11.50;;
53666;SDS011;39568;51.026;5.468;2022-10-19T08:12:54;19.02;;;10.05;;
53666;SDS011;39568;51.026;5.468;2022-10-19T08:15:22;16.40;;;9.65;;
53666;SDS011;39568;51.026;5.468;2022-10-19T08:17:50;13.80;;;8.00;;
53666;SDS011;39568;51.026;5.468;2022-10-19T08:20:16;19.35;;;7.82;;
53666;SDS011;39568;51.026;5.468;2022-10-19T08:22:50;21.67;;;7.53;;
53666;SDS011;39568;51.026;5.468;2022-10-19T08:25:17;11.77;;;5.78;;
53666;SDS011;39568;51.026;5.468;2022-10-19T08:27:44;16.85;;;6.50;;
53666;SDS011;39568;51.026;5.468;2022-10-19T08:30:10;16.50;;;7.57;;
53666;SDS011;39568;51.026;5.468;2022-10-19T08:32:39;14.52;;;5.30;;
53666;SDS011;39568;51.026;5.468;2022-10-19T08:35:06;11.52;;;4.93;;
53666;SDS011;39568;51.026;5.468;2022-10-19T08:37:37;9.15;;;5.28;;
53666;SDS011;39568;51.026;5.468;2022-10-19T08:40:04;15.40;;;6.03;;
53666;SDS011;39568;51.026;5.468;2022-10-19T08:42:37;7.15;;;5.00;;
53666;SDS011;39568;51.026;5.468;2022-10-19T08:45:20;17.33;;;5.75;;
53666;SDS011;39568;51.026;5.468;2022-10-19T08:47:58;10.05;;;4.75;;
53666;SDS011;39568;51.026;5.468;2022-10-19T08:50:31;7.35;;;4.45;;
53666;SDS011;39568;51.026;5.468;2022-10-19T08:53:02;15.60;;;5.95;;
53666;SDS011;39568;51.026;5.468;2022-10-19T08:55:40;17.35;;;4.88;;
53666;SDS011;39568;51.026;5.468;2022-10-19T08:58:18;14.15;;;4.05;;
53666;SDS011;39568;51.026;5.468;2022-10-19T09:00:56;11.70;;;4.63;;
53666;SDS011;39568;51.026;5.468;2022-10-19T09:03:37;16.05;;;4.75;;
53666;SDS011;39568;51.026;5.468;2022-10-19T09:06:13;18.45;;;5.05;;
53666;SDS011;39568;51.026;5.468;2022-10-19T09:08:47;9.77;;;4.78;;
53666;SDS011;39568;51.026;5.468;2022-10-19T09:11:16;10.07;;;4.25;;
53666;SDS011;39568;51.026;5.468;2022-10-19T09:13:59;15.13;;;4.55;;
53666;SDS011;39568;51.026;5.468;2022-10-19T09:16:30;5.00;;;4.05;;
53666;SDS011;39568;51.026;5.468;2022-10-19T09:19:00;19.90;;;4.65;;
53666;SDS011;39568;51.026;5.468;2022-10-19T09:21:27;7.90;;;4.20;;
53666;SDS011;39568;51.026;5.468;2022-10-19T09:24:01;13.40;;;4.82;;
53666;SDS011;39568;51.026;5.468;2022-10-19T09:26:31;14.63;;;5.35;;
53666;SDS011;39568;51.026;5.468;2022-10-19T09:29:02;17.70;;;5.20;;
53666;SDS011;39568;51.026;5.468;2022-10-19T09:31:36;10.70;;;5.30;;
53666;SDS011;39568;51.026;5.468;2022-10-19T09:34:09;17.95;;;5.25;;
53666;SDS011;39568;51.026;5.468;2022-10-19T09:36:40;21.55;;;4.40;;
53666;SDS011;39568;51.026;5.468;2022-10-19T09:39:21;13.55;;;4.80;;
53666;SDS011;39568;51.026;5.468;2022-10-19T09:41:49;11.90;;;4.45;;
53666;SDS011;39568;51.026;5.468;2022-10-19T09:44:19;10.85;;;4.38;;
53666;SDS011;39568;51.026;5.468;2022-10-19T09:46:48;12.80;;;6.50;;
53666;SDS011;39568;51.026;5.468;2022-10-19T09:49:36;15.35;;;5.00;;
53666;SDS011;39568;51.026;5.468;2022-10-19T09:55:01;18.55;;;4.80;;
53666;SDS011;39568;51.026;5.468;2022-10-19T09:57:29;9.88;;;4.47;;
53666;SDS011;39568;51.026;5.468;2022-10-19T09:59:56;31.33;;;7.03;;
53666;SDS011;39568;51.026;5.468;2022-10-19T10:02:27;11.80;;;5.60;;
53666;SDS011;39568;51.026;5.468;2022-10-19T10:05:02;14.68;;;5.07;;
53666;SDS011;39568;51.026;5.468;2022-10-19T10:07:32;8.30;;;4.55;;
53666;SDS011;39568;51.026;5.468;2022-10-19T10:10:01;13.45;;;4.15;;
53666;SDS011;39568;51.026;5.468;2022-10-19T10:12:33;16.38;;;6.03;;
53666;SDS011;39568;51.026;5.468;2022-10-19T10:15:03;12.80;;;6.32;;
53666;SDS011;39568;51.026;5.468;2022-10-19T10:17:32;10.88;;;5.55;;
53666;SDS011;39568;51.026;5.468;2022-10-19T10:20:05;18.10;;;6.30;;
53666;SDS011;39568;51.026;5.468;2022-10-19T10:22:50;11.57;;;6.25;;
53666;SDS011;39568;51.026;5.468;2022-10-19T10:25:18;16.70;;;6.43;;
53666;SDS011;39568;51.026;5.468;2022-10-19T10:27:54;16.35;;;6.68;;
53666;SDS011;39568;51.026;5.468;2022-10-19T10:30:25;13.82;;;6.22;;
53666;SDS011;39568;51.026;5.468;2022-10-19T10:35:26;16.10;;;6.68;;
53666;SDS011;39568;51.026;5.468;2022-10-19T10:38:03;18.63;;;5.88;;
53666;SDS011;39568;51.026;5.468;2022-10-19T10:40:32;20.20;;;6.40;;
53666;SDS011;39568;51.026;5.468;2022-10-19T10:43:00;13.77;;;5.90;;
53666;SDS011;39568;51.026;5.468;2022-10-19T10:45:30;12.85;;;5.47;;
53666;SDS011;39568;51.026;5.468;2022-10-19T10:48:09;14.98;;;6.20;;
53666;SDS011;39568;51.026;5.468;2022-10-19T10:50:46;7.97;;;5.55;;
53666;SDS011;39568;51.026;5.468;2022-10-19T10:56:02;10.45;;;4.47;;
53666;SDS011;39568;51.026;5.468;2022-10-19T10:58:33;13.93;;;4.75;;
53666;SDS011;39568;51.026;5.468;2022-10-19T11:01:04;14.95;;;4.20;;
53666;SDS011;39568;51.026;5.468;2022-10-19T11:03:45;9.65;;;4.57;;
53666;SDS011;39568;51.026;5.468;2022-10-19T11:06:17;9.32;;;4.15;;
53666;SDS011;39568;51.026;5.468;2022-10-19T11:08:48;10.68;;;4.65;;
53666;SDS011;39568;51.026;5.468;2022-10-19T11:11:21;14.73;;;5.07;;
53666;SDS011;39568;51.026;5.468;2022-10-19T11:13:52;17.50;;;6.13;;
53666;SDS011;39568;51.026;5.468;2022-10-19T11:16:25;16.00;;;5.60;;
53666;SDS011;39568;51.026;5.468;2022-10-19T11:18:57;12.02;;;4.80;;
53666;SDS011;39568;51.026;5.468;2022-10-19T11:21:33;6.85;;;5.57;;
53666;SDS011;39568;51.026;5.468;2022-10-19T11:24:08;10.98;;;5.40;;
53666;SDS011;39568;51.026;5.468;2022-10-19T11:26:53;10.82;;;5.75;;
53666;SDS011;39568;51.026;5.468;2022-10-19T11:29:30;13.20;;;5.50;;
53666;SDS011;39568;51.026;5.468;2022-10-19T11:32:09;10.80;;;4.43;;
53666;SDS011;39568;51.026;5.468;2022-10-19T11:34:47;9.90;;;6.35;;
53666;SDS011;39568;51.026;5.468;2022-10-19T11:37:26;12.63;;;6.13;;
53666;SDS011;39568;51.026;5.468;2022-10-19T11:40:11;14.35;;;6.57;;
53666;SDS011;39568;51.026;5.468;2022-10-19T11:42:45;19.98;;;7.65;;
53666;SDS011;39568;51.026;5.468;2022-10-19T11:45:21;13.43;;;5.90;;
53666;SDS011;39568;51.026;5.468;2022-10-19T11:48:03;14.73;;;6.60;;
53666;SDS011;39568;51.026;5.468;2022-10-19T11:50:43;24.65;;;7.40;;
53666;SDS011;39568;51.026;5.468;2022-10-19T11:53:25;9.77;;;6.65;;
53666;SDS011;39568;51.026;5.468;2022-10-19T11:56:02;9.55;;;6.68;;
53666;SDS011;39568;51.026;5.468;2022-10-19T11:58:39;10.38;;;6.22;;
53666;SDS011;39568;51.026;5.468;2022-10-19T12:01:15;14.85;;;6.97;;
53666;SDS011;39568;51.026;5.468;2022-10-19T12:03:58;12.07;;;6.93;;
53666;SDS011;39568;51.026;5.468;2022-10-19T12:06:39;18.92;;;7.47;;
53666;SDS011;39568;51.026;5.468;2022-10-19T12:09:21;18.17;;;7.03;;
53666;SDS011;39568;51.026;5.468;2022-10-19T12:11:57;16.15;;;7.18;;
53666;SDS011;39568;51.026;5.468;2022-10-19T12:14:38;15.88;;;7.15;;
53666;SDS011;39568;51.026;5.468;2022-10-19T12:17:08;13.15;;;7.50;;
53666;SDS011;39568;51.026;5.468;2022-10-19T12:19:39;16.02;;;8.18;;
53666;SDS011;39568;51.026;5.468;2022-10-19T12:22:11;15.75;;;7.25;;
53666;SDS011;39568;51.026;5.468;2022-10-19T12:24:41;19.90;;;8.60;;
53666;SDS011;39568;51.026;5.468;2022-10-19T12:27:09;16.70;;;8.60;;
53666;SDS011;39568;51.026;5.468;2022-10-19T12:29:39;14.95;;;8.60;;
53666;SDS011;39568;51.026;5.468;2022-10-19T12:32:09;20.80;;;9.57;;
53666;SDS011;39568;51.026;5.468;2022-10-19T12:34:42;16.85;;;8.88;;
53666;SDS011;39568;51.026;5.468;2022-10-19T12:37:18;19.73;;;8.93;;
53666;SDS011;39568;51.026;5.468;2022-10-19T12:39:54;21.63;;;10.45;;
53666;SDS011;39568;51.026;5.468;2022-10-19T12:42:27;18.10;;;10.88;;
53666;SDS011;39568;51.026;5.468;2022-10-19T12:53:38;19.40;;;10.27;;
53666;SDS011;39568;51.026;5.468;2022-10-19T12:56:09;22.50;;;11.32;;
53666;SDS011;39568;51.026;5.468;2022-10-19T12:58:44;17.10;;;10.23;;
53666;SDS011;39568;51.026;5.468;2022-10-19T13:01:16;30.13;;;12.02;;
53666;SDS011;39568;51.026;5.468;2022-10-19T13:03:45;18.92;;;10.32;;
53666;SDS011;39568;51.026;5.468;2022-10-19T13:06:14;22.10;;;11.30;;
53666;SDS011;39568;51.026;5.468;2022-10-19T13:08:56;24.25;;;10.57;;
53666;SDS011;39568;51.026;5.468;2022-10-19T13:11:27;25.13;;;10.18;;
53666;SDS011;39568;51.026;5.468;2022-10-19T13:13:55;19.10;;;9.75;;
53666;SDS011;39568;51.026;5.468;2022-10-19T13:19:26;18.08;;;9.35;;
53666;SDS011;39568;51.026;5.468;2022-10-19T13:22:11;20.98;;;8.25;;
53666;SDS011;39568;51.026;5.468;2022-10-19T13:27:49;14.05;;;8.35;;
53666;SDS011;39568;51.026;5.468;2022-10-19T13:33:43;19.08;;;9.50;;
53666;SDS011;39568;51.026;5.468;2022-10-19T13:36:22;22.85;;;9.73;;
53666;SDS011;39568;51.026;5.468;2022-10-19T13:39:03;12.10;;;8.40;;
53666;SDS011;39568;51.026;5.468;2022-10-19T13:41:49;21.67;;;9.98;;
53666;SDS011;39568;51.026;5.468;2022-10-19T13:44:20;16.73;;;9.68;;
53666;SDS011;39568;51.026;5.468;2022-10-19T13:47:02;13.80;;;8.98;;
53666;SDS011;39568;51.026;5.468;2022-10-19T13:49:52;24.52;;;11.00;;
53666;SDS011;39568;51.026;5.468;2022-10-19T13:52:36;18.45;;;11.32;;
53666;SDS011;39568;51.026;5.468;2022-10-19T13:55:38;21.45;;;11.52;;
53666;SDS011;39568;51.026;5.468;2022-10-19T13:58:29;28.15;;;12.45;;
53666;SDS011;39568;51.026;5.468;2022-10-19T14:01:14;19.52;;;12.48;;
53666;SDS011;39568;51.026;5.468;2022-10-19T14:03:57;19.98;;;12.90;;
53666;SDS011;39568;51.026;5.468;2022-10-19T14:06:35;22.38;;;13.48;;
53666;SDS011;39568;51.026;5.468;2022-10-19T14:09:17;25.10;;;13.13;;
53666;SDS011;39568;51.026;5.468;2022-10-19T14:12:04;26.48;;;15.18;;
53666;SDS011;39568;51.026;5.468;2022-10-19T14:14:38;20.73;;;13.30;;
53666;SDS011;39568;51.026;5.468;2022-10-19T14:17:15;24.50;;;13.82;;
53666;SDS011;39568;51.026;5.468;2022-10-19T14:19:44;25.17;;;13.23;;
53666;SDS011;39568;51.026;5.468;2022-10-19T14:22:19;21.80;;;14.07;;
53666;SDS011;39568;51.026;5.468;2022-10-19T14:24:51;19.38;;;13.45;;
53666;SDS011;39568;51.026;5.468;2022-10-19T14:27:24;28.20;;;14.23;;
53666;SDS011;39568;51.026;5.468;2022-10-19T14:29:54;21.10;;;13.85;;
53666;SDS011;39568;51.026;5.468;2022-10-19T14:32:23;24.08;;;13.35;;
53666;SDS011;39568;51.026;5.468;2022-10-19T14:34:51;25.30;;;12.95;;
53666;SDS011;39568;51.026;5.468;2022-10-19T14:37:20;20.98;;;13.60;;
53666;SDS011;39568;51.026;5.468;2022-10-19T14:40:01;18.63;;;13.02;;
53666;SDS011;39568;51.026;5.468;2022-10-19T14:42:35;21.50;;;12.65;;
53666;SDS011;39568;51.026;5.468;2022-10-19T14:45:05;16.98;;;11.98;;
53666;SDS011;39568;51.026;5.468;2022-10-19T14:47:50;20.75;;;13.07;;
53666;SDS011;39568;51.026;5.468;2022-10-19T14:50:33;18.77;;;11.65;;
53666;SDS011;39568;51.026;5.468;2022-10-19T14:53:12;18.08;;;10.35;;
53666;SDS011;39568;51.026;5.468;2022-10-19T14:55:55;19.77;;;11.77;;
53666;SDS011;39568;51.026;5.468;2022-10-19T14:58:25;21.95;;;12.25;;
53666;SDS011;39568;51.026;5.468;2022-10-19T15:00:55;16.38;;;10.75;;
53666;SDS011;39568;51.026;5.468;2022-10-19T15:03:25;20.00;;;11.45;;
53666;SDS011;39568;51.026;5.468;2022-10-19T15:08:23;14.38;;;10.02;;
53666;SDS011;39568;51.026;5.468;2022-10-19T15:10:58;20.80;;;10.93;;
53666;SDS011;39568;51.026;5.468;2022-10-19T15:13:26;17.63;;;10.60;;
53666;SDS011;39568;51.026;5.468;2022-10-19T15:15:56;17.33;;;9.93;;
53666;SDS011;39568;51.026;5.468;2022-10-19T15:18:25;17.15;;;9.77;;
53666;SDS011;39568;51.026;5.468;2022-10-19T15:20:59;21.98;;;10.32;;
53666;SDS011;39568;51.026;5.468;2022-10-19T15:23:32;14.25;;;9.70;;
53666;SDS011;39568;51.026;5.468;2022-10-19T15:26:02;21.08;;;10.68;;
53666;SDS011;39568;51.026;5.468;2022-10-19T15:28:38;16.33;;;9.43;;